sensor_id;sensor_type;location;lat;lon;timestamp;pressure;altitude;pressure_sealevel;temperature;humidity
44685;BME280;76140;45.696;8.652;2024-01-30T00:01:01;100389.44;;;-0.27;35.22
44685;BME280;76140;45.696;8.652;2024-01-30T00:03:26;100391.39;;;-0.75;35.61
44685;BME280;76140;45.696;8.652;2024-01-30T00:05:52;100390.87;;;-1.95;36.42
44685;BME280;76140;45.696;8.652;2024-01-30T00:08:17;100388.20;;;-0.99;35.58
44685;BME280;76140;45.696;8.652;2024-01-30T00:10:42;100388.68;;;-1.17;35.61
44685;BME280;76140;45.696;8.652;2024-01-30T00:13:08;100387.42;;;-0.57;35.52
44685;BME280;76140;45.696;8.652;2024-01-30T00:15:33;100387.99;;;-0.50;35.46
44685;BME280;76140;45.696;8.652;2024-01-30T00:17:58;100383.25;;;-0.08;35.00
44685;BME280;76140;45.696;8.652;2024-01-30T00:20:24;100385.92;;;-1.64;36.24
44685;BME280;76140;45.696;8.652;2024-01-30T00:22:49;100381.96;;;-0.42;35.09
44685;BME280;76140;45.696;8.652;2024-01-30T00:25:14;100379.38;;;0.28;34.82
44685;BME280;76140;45.696;8.652;2024-01-30T00:27:39;100382.76;;;-2.12;36.71
44685;BME280;76140;45.696;8.652;2024-01-30T00:30:06;100386.22;;;-1.83;36.51
44685;BME280;76140;45.696;8.652;2024-01-30T00:32:30;100383.43;;;-2.18;36.48
44685;BME280;76140;45.696;8.652;2024-01-30T00:34:56;100392.54;;;-4.26;39.10
44685;BME280;76140;45.696;8.652;2024-01-30T00:37:21;100381.57;;;-2.56;37.72
44685;BME280;76140;45.696;8.652;2024-01-30T00:39:46;100376.69;;;-2.43;37.32
44685;BME280;76140;45.696;8.652;2024-01-30T00:42:12;100376.99;;;-2.11;37.18
44685;BME280;76140;45.696;8.652;2024-01-30T00:44:38;100375.06;;;-1.39;36.35
44685;BME280;76140;45.696;8.652;2024-01-30T00:47:04;100374.07;;;-1.48;35.78
44685;BME280;76140;45.696;8.652;2024-01-30T00:49:29;100376.29;;;-1.08;35.60
44685;BME280;76140;45.696;8.652;2024-01-30T00:51:55;100374.71;;;-1.21;35.93
44685;BME280;76140;45.696;8.652;2024-01-30T00:54:20;100379.28;;;-2.66;37.19
44685;BME280;76140;45.696;8.652;2024-01-30T00:56:46;100378.18;;;0.12;34.76
44685;BME280;76140;45.696;8.652;2024-01-30T00:59:12;100383.77;;;-2.86;37.16
44685;BME280;76140;45.696;8.652;2024-01-30T01:01:37;100387.80;;;-3.95;38.03
44685;BME280;76140;45.696;8.652;2024-01-30T01:04:02;100387.09;;;-4.55;39.13
44685;BME280;76140;45.696;8.652;2024-01-30T01:06:28;100390.75;;;-4.34;39.65
44685;BME280;76140;45.696;8.652;2024-01-30T01:08:53;100389.84;;;-4.19;39.69
44685;BME280;76140;45.696;8.652;2024-01-30T01:11:19;100382.51;;;-1.39;37.41
44685;BME280;76140;45.696;8.652;2024-01-30T01:13:44;100384.18;;;-2.24;37.87
44685;BME280;76140;45.696;8.652;2024-01-30T01:16:10;100382.40;;;-0.97;36.74
44685;BME280;76140;45.696;8.652;2024-01-30T01:18:35;100385.43;;;-0.45;36.20
44685;BME280;76140;45.696;8.652;2024-01-30T01:21:01;100389.74;;;0.06;35.95
44685;BME280;76140;45.696;8.652;2024-01-30T01:23:27;100388.42;;;-0.39;36.76
44685;BME280;76140;45.696;8.652;2024-01-30T01:25:52;100392.51;;;-1.31;37.32
44685;BME280;76140;45.696;8.652;2024-01-30T01:28:18;100399.96;;;-2.92;38.35
44685;BME280;76140;45.696;8.652;2024-01-30T01:30:43;100400.46;;;-2.37;38.12
44685;BME280;76140;45.696;8.652;2024-01-30T01:33:08;100400.69;;;-5.07;39.71
44685;BME280;76140;45.696;8.652;2024-01-30T01:35:33;100401.74;;;-4.00;39.29
44685;BME280;76140;45.696;8.652;2024-01-30T01:37:59;100397.30;;;-1.94;37.80
44685;BME280;76140;45.696;8.652;2024-01-30T01:40:25;100401.98;;;-3.23;39.55
44685;BME280;76140;45.696;8.652;2024-01-30T01:42:50;100405.36;;;-5.65;41.85
44685;BME280;76140;45.696;8.652;2024-01-30T01:45:16;100408.40;;;-5.50;41.70
44685;BME280;76140;45.696;8.652;2024-01-30T01:47:41;100408.00;;;-6.62;43.06
44685;BME280;76140;45.696;8.652;2024-01-30T01:50:06;100404.21;;;-4.86;41.18
44685;BME280;76140;45.696;8.652;2024-01-30T01:52:32;100404.11;;;-3.85;39.93
44685;BME280;76140;45.696;8.652;2024-01-30T01:54:58;100410.57;;;-6.25;42.60
44685;BME280;76140;45.696;8.652;2024-01-30T01:57:23;100402.82;;;-4.06;40.67
44685;BME280;76140;45.696;8.652;2024-01-30T01:59:48;100401.80;;;-4.65;41.43
44685;BME280;76140;45.696;8.652;2024-01-30T02:02:15;100398.43;;;-4.20;40.60
44685;BME280;76140;45.696;8.652;2024-01-30T02:04:39;100402.39;;;-3.76;39.29
44685;BME280;76140;45.696;8.652;2024-01-30T02:07:05;100401.39;;;-3.51;38.83
44685;BME280;76140;45.696;8.652;2024-01-30T02:09:30;100400.41;;;-2.44;38.22
44685;BME280;76140;45.696;8.652;2024-01-30T02:11:56;100395.05;;;-4.15;39.51
44685;BME280;76140;45.696;8.652;2024-01-30T02:14:21;100396.21;;;-2.85;38.51
44685;BME280;76140;45.696;8.652;2024-01-30T02:16:46;100396.58;;;-2.95;38.18
44685;BME280;76140;45.696;8.652;2024-01-30T02:19:11;100394.34;;;-3.59;38.39
44685;BME280;76140;45.696;8.652;2024-01-30T02:21:36;100392.75;;;-3.32;38.39
44685;BME280;76140;45.696;8.652;2024-01-30T02:24:03;100390.76;;;-3.04;38.22
44685;BME280;76140;45.696;8.652;2024-01-30T02:26:28;100388.82;;;-3.18;38.24
44685;BME280;76140;45.696;8.652;2024-01-30T02:28:53;100388.73;;;-2.97;38.38
44685;BME280;76140;45.696;8.652;2024-01-30T02:31:19;100388.04;;;-1.70;37.84
44685;BME280;76140;45.696;8.652;2024-01-30T02:33:45;100391.59;;;-3.69;38.69
44685;BME280;76140;45.696;8.652;2024-01-30T02:36:10;100391.04;;;-4.80;40.53
44685;BME280;76140;45.696;8.652;2024-01-30T02:38:36;100388.18;;;-4.55;40.97
44685;BME280;76140;45.696;8.652;2024-01-30T02:41:01;100389.81;;;-4.02;39.82
44685;BME280;76140;45.696;8.652;2024-01-30T02:43:27;100385.71;;;-1.95;38.11
44685;BME280;76140;45.696;8.652;2024-01-30T02:45:53;100387.74;;;-2.03;38.01
44685;BME280;76140;45.696;8.652;2024-01-30T02:48:18;100388.78;;;-3.71;39.16
44685;BME280;76140;45.696;8.652;2024-01-30T02:50:43;100386.08;;;-2.72;38.81
44685;BME280;76140;45.696;8.652;2024-01-30T02:53:09;100387.17;;;-3.12;39.08
44685;BME280;76140;45.696;8.652;2024-01-30T02:55:34;100383.32;;;-2.37;38.35
44685;BME280;76140;45.696;8.652;2024-01-30T02:58:00;100380.60;;;-1.84;37.74
44685;BME280;76140;45.696;8.652;2024-01-30T03:00:25;100383.96;;;-2.93;38.73
44685;BME280;76140;45.696;8.652;2024-01-30T03:02:51;100381.87;;;-3.05;38.57
44685;BME280;76140;45.696;8.652;2024-01-30T03:05:17;100387.83;;;-5.87;41.45
44685;BME280;76140;45.696;8.652;2024-01-30T03:07:43;100384.45;;;-3.99;40.35
44685;BME280;76140;45.696;8.652;2024-01-30T03:10:08;100384.63;;;-4.11;40.43
44685;BME280;76140;45.696;8.652;2024-01-30T03:12:33;100383.15;;;-2.33;39.03
44685;BME280;76140;45.696;8.652;2024-01-30T03:14:59;100386.36;;;-3.06;39.43
44685;BME280;76140;45.696;8.652;2024-01-30T03:17:24;100384.59;;;-2.31;38.70
44685;BME280;76140;45.696;8.652;2024-01-30T03:19:49;100383.90;;;-2.89;38.98
44685;BME280;76140;45.696;8.652;2024-01-30T03:22:15;100380.73;;;-2.87;39.29
44685;BME280;76140;45.696;8.652;2024-01-30T03:24:40;100378.69;;;-2.43;39.31
44685;BME280;76140;45.696;8.652;2024-01-30T03:27:06;100377.18;;;-3.66;40.50
44685;BME280;76140;45.696;8.652;2024-01-30T03:29:31;100380.13;;;-2.62;39.11
44685;BME280;76140;45.696;8.652;2024-01-30T03:31:56;100376.52;;;-1.75;37.85
44685;BME280;76140;45.696;8.652;2024-01-30T03:34:22;100368.40;;;-1.38;37.90
44685;BME280;76140;45.696;8.652;2024-01-30T03:36:47;100375.61;;;-2.20;38.29
44685;BME280;76140;45.696;8.652;2024-01-30T03:39:13;100373.04;;;-2.68;38.73
44685;BME280;76140;45.696;8.652;2024-01-30T03:41:38;100369.49;;;-4.03;39.96
44685;BME280;76140;45.696;8.652;2024-01-30T03:44:03;100367.76;;;-3.23;39.18
44685;BME280;76140;45.696;8.652;2024-01-30T03:46:28;100369.65;;;-3.26;39.13
44685;BME280;76140;45.696;8.652;2024-01-30T03:48:54;100372.43;;;-2.67;38.65
44685;BME280;76140;45.696;8.652;2024-01-30T03:51:20;100372.64;;;-4.79;40.88
44685;BME280;76140;45.696;8.652;2024-01-30T03:53:45;100376.41;;;-6.25;42.21
44685;BME280;76140;45.696;8.652;2024-01-30T03:56:10;100373.11;;;-2.31;38.95
44685;BME280;76140;45.696;8.652;2024-01-30T03:58:36;100373.40;;;-2.13;38.86
44685;BME280;76140;45.696;8.652;2024-01-30T04:01:02;100373.91;;;-2.87;39.84
44685;BME280;76140;45.696;8.652;2024-01-30T04:03:27;100373.59;;;-2.70;40.05
44685;BME280;76140;45.696;8.652;2024-01-30T04:05:53;100370.53;;;-3.02;39.86
44685;BME280;76140;45.696;8.652;2024-01-30T04:08:18;100370.69;;;-3.42;40.17
44685;BME280;76140;45.696;8.652;2024-01-30T04:10:44;100372.04;;;-1.97;38.88
44685;BME280;76140;45.696;8.652;2024-01-30T04:13:09;100372.49;;;-1.58;38.22
44685;BME280;76140;45.696;8.652;2024-01-30T04:15:35;100370.12;;;-4.44;40.49
44685;BME280;76140;45.696;8.652;2024-01-30T04:18:00;100372.44;;;-4.75;41.27
44685;BME280;76140;45.696;8.652;2024-01-30T04:20:26;100371.54;;;-3.43;40.19
44685;BME280;76140;45.696;8.652;2024-01-30T04:22:51;100370.94;;;-3.57;40.14
44685;BME280;76140;45.696;8.652;2024-01-30T04:25:16;100371.59;;;-5.80;41.47
44685;BME280;76140;45.696;8.652;2024-01-30T04:27:42;100371.14;;;-5.43;41.43
44685;BME280;76140;45.696;8.652;2024-01-30T04:30:08;100363.07;;;-4.34;40.22
44685;BME280;76140;45.696;8.652;2024-01-30T04:32:33;100365.97;;;-5.92;42.53
44685;BME280;76140;45.696;8.652;2024-01-30T04:34:59;100364.75;;;-6.05;43.14
44685;BME280;76140;45.696;8.652;2024-01-30T04:37:25;100363.40;;;-5.52;42.37
44685;BME280;76140;45.696;8.652;2024-01-30T04:39:50;100356.82;;;-4.54;41.38
44685;BME280;76140;45.696;8.652;2024-01-30T04:42:15;100359.01;;;-4.29;40.41
44685;BME280;76140;45.696;8.652;2024-01-30T04:44:41;100360.32;;;-2.39;38.80
44685;BME280;76140;45.696;8.652;2024-01-30T04:47:06;100360.36;;;-3.09;39.07
44685;BME280;76140;45.696;8.652;2024-01-30T04:49:32;100355.98;;;-1.82;37.49
44685;BME280;76140;45.696;8.652;2024-01-30T04:51:57;100366.74;;;-3.52;39.68
44685;BME280;76140;45.696;8.652;2024-01-30T04:54:22;100365.06;;;-4.52;40.78
44685;BME280;76140;45.696;8.652;2024-01-30T04:56:48;100366.62;;;-4.72;41.24
44685;BME280;76140;45.696;8.652;2024-01-30T04:59:13;100369.08;;;-4.54;42.40
44685;BME280;76140;45.696;8.652;2024-01-30T05:01:39;100364.45;;;-3.57;40.98
44685;BME280;76140;45.696;8.652;2024-01-30T05:04:08;100364.33;;;-4.19;41.14
44685;BME280;76140;45.696;8.652;2024-01-30T05:06:30;100365.68;;;-3.58;40.15
44685;BME280;76140;45.696;8.652;2024-01-30T05:08:56;100365.85;;;-5.39;42.00
44685;BME280;76140;45.696;8.652;2024-01-30T05:11:22;100362.70;;;-4.19;41.02
44685;BME280;76140;45.696;8.652;2024-01-30T05:13:47;100366.95;;;-3.72;41.31
44685;BME280;76140;45.696;8.652;2024-01-30T05:16:13;100367.84;;;-4.29;41.90
44685;BME280;76140;45.696;8.652;2024-01-30T05:18:38;100367.68;;;-3.58;40.82
44685;BME280;76140;45.696;8.652;2024-01-30T05:21:05;100371.12;;;-2.80;40.02
44685;BME280;76140;45.696;8.652;2024-01-30T05:23:29;100368.93;;;-2.94;39.74
44685;BME280;76140;45.696;8.652;2024-01-30T05:25:55;100373.57;;;-4.95;41.93
44685;BME280;76140;45.696;8.652;2024-01-30T05:28:20;100376.00;;;-5.42;42.33
44685;BME280;76140;45.696;8.652;2024-01-30T05:30:46;100377.58;;;-4.71;41.99
44685;BME280;76140;45.696;8.652;2024-01-30T05:33:11;100373.65;;;-3.93;40.57
44685;BME280;76140;45.696;8.652;2024-01-30T05:35:37;100373.64;;;-4.20;41.31
44685;BME280;76140;45.696;8.652;2024-01-30T05:38:03;100373.48;;;-2.82;40.43
44685;BME280;76140;45.696;8.652;2024-01-30T05:40:28;100370.23;;;-2.56;40.61
44685;BME280;76140;45.696;8.652;2024-01-30T05:42:53;100372.80;;;-2.79;39.95
44685;BME280;76140;45.696;8.652;2024-01-30T05:45:19;100374.84;;;-2.89;39.89
44685;BME280;76140;45.696;8.652;2024-01-30T05:47:45;100371.36;;;-3.49;40.11
44685;BME280;76140;45.696;8.652;2024-01-30T05:50:10;100372.08;;;-3.01;39.71
44685;BME280;76140;45.696;8.652;2024-01-30T05:52:35;100372.49;;;-2.47;39.08
44685;BME280;76140;45.696;8.652;2024-01-30T05:55:01;100371.68;;;-1.73;38.55
44685;BME280;76140;45.696;8.652;2024-01-30T05:57:26;100371.61;;;-3.87;40.62
44685;BME280;76140;45.696;8.652;2024-01-30T05:59:52;100369.53;;;-3.50;40.69
44685;BME280;76140;45.696;8.652;2024-01-30T06:02:17;100367.30;;;-4.41;41.59
44685;BME280;76140;45.696;8.652;2024-01-30T06:04:43;100371.20;;;-3.27;40.40
44685;BME280;76140;45.696;8.652;2024-01-30T06:07:08;100371.77;;;-1.86;38.92
44685;BME280;76140;45.696;8.652;2024-01-30T06:09:34;100372.63;;;-2.65;39.36
44685;BME280;76140;45.696;8.652;2024-01-30T06:11:59;100371.60;;;-2.52;39.47
44685;BME280;76140;45.696;8.652;2024-01-30T06:14:25;100372.85;;;-3.31;40.07
44685;BME280;76140;45.696;8.652;2024-01-30T06:16:50;100369.15;;;-2.70;39.77
44685;BME280;76140;45.696;8.652;2024-01-30T06:19:15;100373.88;;;-3.30;40.19
44685;BME280;76140;45.696;8.652;2024-01-30T06:21:41;100373.74;;;-4.93;41.24
44685;BME280;76140;45.696;8.652;2024-01-30T06:24:06;100374.17;;;-2.81;39.26
44685;BME280;76140;45.696;8.652;2024-01-30T06:26:33;100374.62;;;-2.49;38.77
44685;BME280;76140;45.696;8.652;2024-01-30T06:28:58;100378.31;;;-2.87;39.53
44685;BME280;76140;45.696;8.652;2024-01-30T06:31:23;100376.83;;;-2.44;40.19
44685;BME280;76140;45.696;8.652;2024-01-30T06:33:49;100377.37;;;-3.69;42.04
44685;BME280;76140;45.696;8.652;2024-01-30T06:36:14;100377.49;;;-4.27;42.95
44685;BME280;76140;45.696;8.652;2024-01-30T06:38:40;100382.27;;;-6.01;44.22
44685;BME280;76140;45.696;8.652;2024-01-30T06:41:05;100382.01;;;-4.34;42.71
44685;BME280;76140;45.696;8.652;2024-01-30T06:43:30;100383.74;;;-3.81;41.94
44685;BME280;76140;45.696;8.652;2024-01-30T06:45:55;100386.68;;;-2.76;40.85
44685;BME280;76140;45.696;8.652;2024-01-30T06:48:21;100385.36;;;-2.78;41.56
44685;BME280;76140;45.696;8.652;2024-01-30T06:50:47;100386.90;;;-3.10;41.51
44685;BME280;76140;45.696;8.652;2024-01-30T06:53:13;100398.12;;;-4.86;43.30
44685;BME280;76140;45.696;8.652;2024-01-30T06:55:38;100395.59;;;-4.94;43.73
44685;BME280;76140;45.696;8.652;2024-01-30T06:58:04;100390.41;;;-4.40;42.88
44685;BME280;76140;45.696;8.652;2024-01-30T07:00:29;100390.50;;;-2.49;40.55
44685;BME280;76140;45.696;8.652;2024-01-30T07:02:54;100389.82;;;-1.81;39.40
44685;BME280;76140;45.696;8.652;2024-01-30T07:05:19;100394.14;;;-4.99;42.23
44685;BME280;76140;45.696;8.652;2024-01-30T07:07:44;100395.78;;;-3.31;40.72
44685;BME280;76140;45.696;8.652;2024-01-30T07:10:10;100395.74;;;-3.10;40.23
44685;BME280;76140;45.696;8.652;2024-01-30T07:12:35;100394.49;;;-3.43;40.66
44685;BME280;76140;45.696;8.652;2024-01-30T07:15:00;100395.40;;;-3.33;40.93
44685;BME280;76140;45.696;8.652;2024-01-30T07:17:25;100392.07;;;-3.77;41.53
44685;BME280;76140;45.696;8.652;2024-01-30T07:19:50;100395.63;;;-3.46;40.93
44685;BME280;76140;45.696;8.652;2024-01-30T07:22:16;100397.45;;;-1.59;39.43
44685;BME280;76140;45.696;8.652;2024-01-30T07:24:43;100401.51;;;-3.64;40.78
44685;BME280;76140;45.696;8.652;2024-01-30T07:27:07;100404.03;;;-1.87;38.98
44685;BME280;76140;45.696;8.652;2024-01-30T07:29:32;100405.54;;;-2.80;39.82
44685;BME280;76140;45.696;8.652;2024-01-30T07:31:57;100401.90;;;-0.71;38.26
44685;BME280;76140;45.696;8.652;2024-01-30T07:34:22;100409.83;;;-2.10;39.29
44685;BME280;76140;45.696;8.652;2024-01-30T07:36:48;100404.72;;;-1.01;38.36
44685;BME280;76140;45.696;8.652;2024-01-30T07:39:13;100414.27;;;-2.65;39.92
44685;BME280;76140;45.696;8.652;2024-01-30T07:41:39;100416.06;;;-2.72;40.51
44685;BME280;76140;45.696;8.652;2024-01-30T07:44:04;100420.03;;;-3.62;41.16
44685;BME280;76140;45.696;8.652;2024-01-30T07:46:30;100407.32;;;-1.18;38.40
44685;BME280;76140;45.696;8.652;2024-01-30T07:48:55;100408.49;;;-1.07;38.85
44685;BME280;76140;45.696;8.652;2024-01-30T07:51:21;100420.59;;;-2.65;40.34
44685;BME280;76140;45.696;8.652;2024-01-30T07:53:46;100407.77;;;-1.39;39.17
44685;BME280;76140;45.696;8.652;2024-01-30T07:56:12;100411.28;;;-0.32;37.93
44685;BME280;76140;45.696;8.652;2024-01-30T07:58:37;100410.50;;;0.51;36.75
44685;BME280;76140;45.696;8.652;2024-01-30T08:01:03;100412.25;;;0.08;36.85
44685;BME280;76140;45.696;8.652;2024-01-30T08:03:28;100409.87;;;0.87;36.19
44685;BME280;76140;45.696;8.652;2024-01-30T08:05:53;100416.98;;;0.61;36.62
44685;BME280;76140;45.696;8.652;2024-01-30T08:08:19;100416.54;;;0.64;36.18
44685;BME280;76140;45.696;8.652;2024-01-30T08:10:45;100416.16;;;0.47;36.20
44685;BME280;76140;45.696;8.652;2024-01-30T08:13:10;100414.47;;;0.98;36.23
44685;BME280;76140;45.696;8.652;2024-01-30T08:15:35;100416.29;;;1.31;36.11
44685;BME280;76140;45.696;8.652;2024-01-30T08:18:01;100418.45;;;0.68;36.95
44685;BME280;76140;45.696;8.652;2024-01-30T08:20:27;100420.96;;;-0.65;38.38
44685;BME280;76140;45.696;8.652;2024-01-30T08:22:52;100419.94;;;-1.43;38.39
44685;BME280;76140;45.696;8.652;2024-01-30T08:25:17;100417.26;;;-1.86;38.78
44685;BME280;76140;45.696;8.652;2024-01-30T08:27:42;100415.82;;;0.55;36.96
44685;BME280;76140;45.696;8.652;2024-01-30T08:30:09;100413.90;;;0.85;36.75
44685;BME280;76140;45.696;8.652;2024-01-30T08:32:33;100419.12;;;0.50;37.12
44685;BME280;76140;45.696;8.652;2024-01-30T08:34:59;100417.57;;;0.96;36.87
44685;BME280;76140;45.696;8.652;2024-01-30T08:37:24;100417.83;;;0.80;37.00
44685;BME280;76140;45.696;8.652;2024-01-30T08:39:49;100415.37;;;0.96;37.14
44685;BME280;76140;45.696;8.652;2024-01-30T08:42:15;100417.59;;;0.42;38.02
44685;BME280;76140;45.696;8.652;2024-01-30T08:44:40;100416.30;;;0.90;37.78
44685;BME280;76140;45.696;8.652;2024-01-30T08:47:05;100417.34;;;-0.03;38.09
44685;BME280;76140;45.696;8.652;2024-01-30T08:49:30;100415.07;;;1.59;36.41
44685;BME280;76140;45.696;8.652;2024-01-30T08:51:56;100413.79;;;1.36;36.51
44685;BME280;76140;45.696;8.652;2024-01-30T08:54:22;100411.72;;;1.73;36.08
44685;BME280;76140;45.696;8.652;2024-01-30T08:56:47;100415.90;;;1.15;36.22
44685;BME280;76140;45.696;8.652;2024-01-30T08:59:12;100416.07;;;0.74;36.59
44685;BME280;76140;45.696;8.652;2024-01-30T09:01:38;100420.19;;;0.93;37.12
44685;BME280;76140;45.696;8.652;2024-01-30T09:04:03;100423.05;;;0.76;37.31
44685;BME280;76140;45.696;8.652;2024-01-30T09:06:29;100421.69;;;1.01;37.05
44685;BME280;76140;45.696;8.652;2024-01-30T09:08:54;100420.86;;;1.71;36.06
44685;BME280;76140;45.696;8.652;2024-01-30T09:11:20;100425.04;;;1.49;36.59
44685;BME280;76140;45.696;8.652;2024-01-30T09:13:45;100425.15;;;0.93;37.16
44685;BME280;76140;45.696;8.652;2024-01-30T09:16:11;100424.72;;;1.87;35.94
44685;BME280;76140;45.696;8.652;2024-01-30T09:18:36;100427.52;;;0.15;37.91
44685;BME280;76140;45.696;8.652;2024-01-30T09:21:01;100423.09;;;1.29;36.77
44685;BME280;76140;45.696;8.652;2024-01-30T09:23:27;100424.96;;;0.80;36.66
44685;BME280;76140;45.696;8.652;2024-01-30T09:25:52;100424.42;;;1.89;36.15
44685;BME280;76140;45.696;8.652;2024-01-30T09:28:17;100428.09;;;0.57;36.96
44685;BME280;76140;45.696;8.652;2024-01-30T09:30:43;100426.50;;;1.36;36.26
44685;BME280;76140;45.696;8.652;2024-01-30T09:33:08;100426.79;;;0.17;37.21
44685;BME280;76140;45.696;8.652;2024-01-30T09:35:33;100428.89;;;2.31;35.70
44685;BME280;76140;45.696;8.652;2024-01-30T09:37:58;100431.65;;;-0.19;37.36
44685;BME280;76140;45.696;8.652;2024-01-30T09:40:24;100433.51;;;-1.11;38.38
44685;BME280;76140;45.696;8.652;2024-01-30T09:42:50;100432.02;;;2.09;35.83
44685;BME280;76140;45.696;8.652;2024-01-30T09:45:15;100432.61;;;2.68;35.19
44685;BME280;76140;45.696;8.652;2024-01-30T09:47:41;100435.38;;;2.11;35.76
44685;BME280;76140;45.696;8.652;2024-01-30T09:50:06;100436.99;;;-0.28;37.26
44685;BME280;76140;45.696;8.652;2024-01-30T09:52:30;100441.05;;;1.58;36.08
44685;BME280;76140;45.696;8.652;2024-01-30T09:54:57;100443.69;;;2.81;35.28
44685;BME280;76140;45.696;8.652;2024-01-30T09:57:22;100442.03;;;2.69;35.62
44685;BME280;76140;45.696;8.652;2024-01-30T09:59:47;100440.65;;;3.11;35.36
44685;BME280;76140;45.696;8.652;2024-01-30T10:02:13;100440.45;;;2.17;35.51
44685;BME280;76140;45.696;8.652;2024-01-30T10:04:38;100431.42;;;3.44;34.33
44685;BME280;76140;45.696;8.652;2024-01-30T10:07:04;100435.80;;;2.83;33.88
44685;BME280;76140;45.696;8.652;2024-01-30T10:09:32;100426.05;;;4.05;33.49
44685;BME280;76140;45.696;8.652;2024-01-30T10:11:55;100426.99;;;4.58;33.21
44685;BME280;76140;45.696;8.652;2024-01-30T10:14:20;100428.32;;;3.97;33.78
44685;BME280;76140;45.696;8.652;2024-01-30T10:16:46;100431.53;;;3.33;34.51
44685;BME280;76140;45.696;8.652;2024-01-30T10:19:11;100428.52;;;3.32;34.66
44685;BME280;76140;45.696;8.652;2024-01-30T10:21:37;100430.95;;;3.09;35.30
44685;BME280;76140;45.696;8.652;2024-01-30T10:24:04;100424.20;;;3.68;34.49
44685;BME280;76140;45.696;8.652;2024-01-30T10:26:28;100431.97;;;1.35;35.93
44685;BME280;76140;45.696;8.652;2024-01-30T10:28:53;100418.71;;;3.30;34.34
44685;BME280;76140;45.696;8.652;2024-01-30T10:31:19;100425.41;;;1.01;36.77
44685;BME280;76140;45.696;8.652;2024-01-30T10:33:45;100420.04;;;3.08;34.68
44685;BME280;76140;45.696;8.652;2024-01-30T10:36:13;100421.76;;;-0.44;37.29
44685;BME280;76140;45.696;8.652;2024-01-30T10:38:35;100413.14;;;2.77;34.39
44685;BME280;76140;45.696;8.652;2024-01-30T10:41:01;100408.51;;;4.92;32.69
44685;BME280;76140;45.696;8.652;2024-01-30T10:43:31;100405.77;;;4.38;33.12
44685;BME280;76140;45.696;8.652;2024-01-30T10:45:52;100403.59;;;4.86;33.33
44685;BME280;76140;45.696;8.652;2024-01-30T10:48:19;100400.13;;;4.35;33.57
44685;BME280;76140;45.696;8.652;2024-01-30T10:50:42;100395.06;;;5.61;31.55
44685;BME280;76140;45.696;8.652;2024-01-30T10:53:13;100391.15;;;4.96;32.58
44685;BME280;76140;45.696;8.652;2024-01-30T10:55:32;100388.37;;;4.61;33.10
44685;BME280;76140;45.696;8.652;2024-01-30T10:57:57;100383.39;;;5.71;32.14
44685;BME280;76140;45.696;8.652;2024-01-30T11:00:23;100376.81;;;5.25;31.79
44685;BME280;76140;45.696;8.652;2024-01-30T11:02:48;100369.87;;;5.46;30.92
44685;BME280;76140;45.696;8.652;2024-01-30T11:05:13;100375.96;;;2.67;33.72
44685;BME280;76140;45.696;8.652;2024-01-30T11:07:39;100368.87;;;6.56;30.48
44685;BME280;76140;45.696;8.652;2024-01-30T11:10:05;100369.51;;;6.55;30.64
44685;BME280;76140;45.696;8.652;2024-01-30T11:12:30;100369.26;;;6.23;30.74
44685;BME280;76140;45.696;8.652;2024-01-30T11:15:04;100369.79;;;4.61;31.65
44685;BME280;76140;45.696;8.652;2024-01-30T11:17:20;100364.57;;;5.88;30.99
44685;BME280;76140;45.696;8.652;2024-01-30T11:19:46;100361.52;;;6.26;29.51
44685;BME280;76140;45.696;8.652;2024-01-30T11:22:11;100361.88;;;5.29;29.77
44685;BME280;76140;45.696;8.652;2024-01-30T11:24:39;100360.48;;;6.50;28.01
44685;BME280;76140;45.696;8.652;2024-01-30T11:27:03;100363.93;;;4.39;31.27
44685;BME280;76140;45.696;8.652;2024-01-30T11:29:28;100357.17;;;5.15;29.95
44685;BME280;76140;45.696;8.652;2024-01-30T11:31:53;100353.44;;;5.38;29.32
44685;BME280;76140;45.696;8.652;2024-01-30T11:34:19;100346.23;;;6.00;28.83
44685;BME280;76140;45.696;8.652;2024-01-30T11:36:45;100342.48;;;6.48;28.64
44685;BME280;76140;45.696;8.652;2024-01-30T11:39:09;100343.73;;;2.96;31.03
44685;BME280;76140;45.696;8.652;2024-01-30T11:41:36;100335.38;;;6.33;28.17
44685;BME280;76140;45.696;8.652;2024-01-30T11:44:00;100329.95;;;5.66;28.99
44685;BME280;76140;45.696;8.652;2024-01-30T11:46:26;100330.14;;;6.62;28.18
44685;BME280;76140;45.696;8.652;2024-01-30T11:48:51;100327.94;;;4.21;29.88
44685;BME280;76140;45.696;8.652;2024-01-30T11:51:16;100329.66;;;3.55;30.49
44685;BME280;76140;45.696;8.652;2024-01-30T11:53:41;100329.22;;;2.80;29.85
44685;BME280;76140;45.696;8.652;2024-01-30T11:56:07;100325.44;;;4.17;29.29
44685;BME280;76140;45.696;8.652;2024-01-30T11:58:32;100318.63;;;4.93;28.01
44685;BME280;76140;45.696;8.652;2024-01-30T12:00:58;100316.92;;;5.67;27.80
44685;BME280;76140;45.696;8.652;2024-01-30T12:03:23;100310.95;;;5.74;26.49
44685;BME280;76140;45.696;8.652;2024-01-30T12:05:55;100305.72;;;6.25;26.63
44685;BME280;76140;45.696;8.652;2024-01-30T12:08:15;100300.86;;;5.53;26.68
44685;BME280;76140;45.696;8.652;2024-01-30T12:10:39;100296.63;;;1.88;29.03
44685;BME280;76140;45.696;8.652;2024-01-30T12:13:05;100287.52;;;4.97;26.52
44685;BME280;76140;45.696;8.652;2024-01-30T12:15:30;100282.66;;;5.14;26.62
44685;BME280;76140;45.696;8.652;2024-01-30T12:18:04;100281.50;;;3.17;27.80
44685;BME280;76140;45.696;8.652;2024-01-30T12:20:21;100276.31;;;3.77;27.39
44685;BME280;76140;45.696;8.652;2024-01-30T12:22:48;100271.71;;;5.39;25.53
44685;BME280;76140;45.696;8.652;2024-01-30T12:25:12;100269.98;;;3.25;27.09
44685;BME280;76140;45.696;8.652;2024-01-30T12:27:37;100267.65;;;3.63;27.50
44685;BME280;76140;45.696;8.652;2024-01-30T12:30:06;100267.44;;;3.29;27.56
44685;BME280;76140;45.696;8.652;2024-01-30T12:32:28;100267.80;;;1.20;29.81
44685;BME280;76140;45.696;8.652;2024-01-30T12:34:55;100259.83;;;4.25;28.81
44685;BME280;76140;45.696;8.652;2024-01-30T12:37:19;100257.15;;;3.00;29.43
44685;BME280;76140;45.696;8.652;2024-01-30T12:39:44;100250.23;;;5.15;27.80
44685;BME280;76140;45.696;8.652;2024-01-30T12:42:09;100247.04;;;5.69;27.15